Weather at Airbase Pantanella [CLOSED]

Public forecast

Using degrees Celsius for public forecast. Weather courtesy of forecast.io.

Closest aviation weather report (METAR) to Airbase Pantanella

Report is more than 6 hours old.

Closest report is Foggia "Gino Lisa" Airport, 24.9 nm (46.0 km) NW. Retrieved 2022/01/26 14:50 UTC (17 hours ago):

LIBF 261450Z 34012KT CAVOK 12/05 Q1026

Closest aviation forecast (TAF) to Airbase Pantanella

Closest forecast is Foggia "Gino Lisa" Airport, 24.9 nm (46.0 km) NW. Retrieved 2022/01/27 08:00 UTC (0 seconds ago):

TAF LIBF 270500Z 2708/2806 30010KT CAVOK BECMG 2718/2720 VRB05KT